IGO621M VIDP-VABP
Flight info
| Callsign | IGO621M |
|---|---|
| Flight time | 0h 55m |
| Altitude | 35000 |
| Route | AKRIB6C AKRIB Z16 BULDI W19 BPL |
| Aircraft | B738/M-SDE2E3FGHIRWXY/LB1 |
Departure
| Time | 2026-04-21 17:02 |
|---|---|
| Airport | Indira Gandhi International Airport (VIDP) |
Arrival
| Time | 2026-04-21 17:58 |
|---|---|
| Airport | Raja Bhoj International Airport (VABP) |
| Time | Latitude | Longitude | Altitude | Speed | Heading |
|---|---|---|---|---|---|
| 2026-04-21 16:55 | 28.56385 | 77.11791 | 779 ft | 0 kts | 14° |
| 2026-04-21 16:58 | 28.56373 | 77.11787 | 779 ft | 2 kts | 15° |
| 2026-04-21 16:58 | 28.56358 | 77.11784 | 779 ft | 2 kts | 12° |
| 2026-04-21 16:58 | 28.56346 | 77.11775 | 779 ft | 2 kts | 52° |
| 2026-04-21 16:59 | 28.56339 | 77.11759 | 779 ft | 2 kts | 85° |
| 2026-04-21 16:59 | 28.56340 | 77.11749 | 779 ft | 1 kts | 104° |
| 2026-04-21 16:59 | 28.56341 | 77.11743 | 779 ft | 0 kts | 104° |
| 2026-04-21 17:00 | 28.56336 | 77.11766 | 779 ft | 7 kts | 102° |
| 2026-04-21 17:00 | 28.56313 | 77.11809 | 779 ft | 12 kts | 167° |
| 2026-04-21 17:00 | 28.56152 | 77.11773 | 779 ft | 21 kts | 179° |
| 2026-04-21 17:01 | 28.56038 | 77.11816 | 779 ft | 16 kts | 191° |
| 2026-04-21 17:01 | 28.55969 | 77.11781 | 779 ft | 6 kts | 257° |
| 2026-04-21 17:01 | 28.55974 | 77.11749 | 779 ft | 0 kts | 284° |
| 2026-04-21 17:01 | 28.55976 | 77.11737 | 779 ft | 4 kts | 284° |
| 2026-04-21 17:02 | 28.56037 | 77.11479 | 779 ft | 72 kts | 284° |
| 2026-04-21 17:02 | 28.56226 | 77.10651 | 780 ft | 141 kts | 284° |
| 2026-04-21 17:02 | 28.56513 | 77.09402 | 1090 ft | 171 kts | 285° |
| 2026-04-21 17:02 | 28.56792 | 77.08094 | 1846 ft | 175 kts | 287° |
| 2026-04-21 17:03 | 28.57100 | 77.06737 | 2484 ft | 188 kts | 282° |
| 2026-04-21 17:03 | 28.56903 | 77.05193 | 3000 ft | 214 kts | 245° |
| 2026-04-21 17:03 | 28.55742 | 77.04016 | 3516 ft | 242 kts | 207° |
| 2026-04-21 17:03 | 28.54061 | 77.03533 | 4090 ft | 259 kts | 192° |
| 2026-04-21 17:04 | 28.52229 | 77.03246 | 4792 ft | 268 kts | 191° |
| 2026-04-21 17:04 | 28.50384 | 77.02925 | 5556 ft | 273 kts | 193° |
| 2026-04-21 17:04 | 28.48467 | 77.02536 | 6125 ft | 288 kts | 194° |
| 2026-04-21 17:04 | 28.46466 | 77.02104 | 6828 ft | 296 kts | 194° |
| 2026-04-21 17:05 | 28.44450 | 77.01668 | 7675 ft | 298 kts | 194° |
| 2026-04-21 17:05 | 28.42407 | 77.01230 | 8492 ft | 302 kts | 194° |
| 2026-04-21 17:05 | 28.40330 | 77.00786 | 9293 ft | 306 kts | 194° |
| 2026-04-21 17:05 | 28.38245 | 77.00341 | 10110 ft | 309 kts | 194° |
| 2026-04-21 17:06 | 28.36069 | 76.99873 | 10599 ft | 325 kts | 193° |
| 2026-04-21 17:06 | 28.33801 | 76.99387 | 11060 ft | 341 kts | 193° |
| 2026-04-21 17:06 | 28.31423 | 76.98876 | 11514 ft | 356 kts | 193° |
| 2026-04-21 17:06 | 28.28926 | 76.98344 | 12121 ft | 366 kts | 192° |
| 2026-04-21 17:07 | 28.26428 | 76.97813 | 12907 ft | 370 kts | 192° |
| 2026-04-21 17:07 | 28.23917 | 76.97282 | 13699 ft | 373 kts | 192° |
| 2026-04-21 17:07 | 28.21318 | 76.96730 | 14440 ft | 379 kts | 192° |
| 2026-04-21 17:07 | 28.18723 | 76.96178 | 15220 ft | 382 kts | 192° |
| 2026-04-21 17:08 | 28.16120 | 76.95625 | 15978 ft | 386 kts | 192° |
| 2026-04-21 17:08 | 28.13450 | 76.95058 | 16696 ft | 391 kts | 192° |
| 2026-04-21 17:08 | 28.10768 | 76.94487 | 17396 ft | 395 kts | 192° |
| 2026-04-21 17:08 | 28.08069 | 76.93913 | 18081 ft | 400 kts | 192° |
| 2026-04-21 17:09 | 28.02526 | 76.92735 | 19319 ft | 412 kts | 192° |
| 2026-04-21 17:09 | 27.99682 | 76.92132 | 19902 ft | 418 kts | 192° |
| 2026-04-21 17:09 | 27.96787 | 76.91518 | 20499 ft | 424 kts | 192° |
| 2026-04-21 17:10 | 27.93901 | 76.90906 | 21133 ft | 428 kts | 192° |
| 2026-04-21 17:10 | 27.90932 | 76.90278 | 21659 ft | 435 kts | 191° |
| 2026-04-21 17:10 | 27.87954 | 76.89648 | 22308 ft | 438 kts | 191° |
| 2026-04-21 17:10 | 27.84933 | 76.89008 | 22793 ft | 445 kts | 192° |
| 2026-04-21 17:11 | 27.81900 | 76.88367 | 23459 ft | 446 kts | 192° |
| 2026-04-21 17:11 | 27.78811 | 76.87715 | 24043 ft | 450 kts | 192° |
| 2026-04-21 17:11 | 27.75735 | 76.87066 | 24636 ft | 453 kts | 192° |
| 2026-04-21 17:11 | 27.72597 | 76.86403 | 25101 ft | 459 kts | 192° |
| 2026-04-21 17:12 | 27.69469 | 76.85742 | 25697 ft | 460 kts | 193° |
| 2026-04-21 17:12 | 27.66336 | 76.85081 | 26250 ft | 463 kts | 193° |
| 2026-04-21 17:12 | 27.63162 | 76.84412 | 26749 ft | 466 kts | 193° |
| 2026-04-21 17:12 | 27.59959 | 76.83737 | 27272 ft | 469 kts | 193° |
| 2026-04-21 17:13 | 27.56722 | 76.83056 | 27770 ft | 472 kts | 193° |
| 2026-04-21 17:13 | 27.53491 | 76.82377 | 28264 ft | 475 kts | 193° |
| 2026-04-21 17:13 | 27.50232 | 76.81692 | 28771 ft | 477 kts | 193° |
| 2026-04-21 17:13 | 27.46949 | 76.81002 | 29229 ft | 480 kts | 193° |
| 2026-04-21 17:14 | 27.43619 | 76.80374 | 29889 ft | 479 kts | 191° |
| 2026-04-21 17:14 | 27.40313 | 76.79988 | 30682 ft | 475 kts | 186° |
| 2026-04-21 17:14 | 27.37002 | 76.79890 | 31301 ft | 474 kts | 182° |
| 2026-04-21 17:14 | 27.33717 | 76.79967 | 31813 ft | 475 kts | 180° |
| 2026-04-21 17:15 | 27.30400 | 76.80135 | 32339 ft | 475 kts | 179° |
| 2026-04-21 17:15 | 27.27099 | 76.80338 | 32904 ft | 473 kts | 179° |
| 2026-04-21 17:15 | 27.23833 | 76.80542 | 33400 ft | 472 kts | 179° |
| 2026-04-21 17:15 | 27.20561 | 76.80737 | 33913 ft | 471 kts | 179° |
| 2026-04-21 17:16 | 27.17279 | 76.80920 | 34450 ft | 469 kts | 180° |
| 2026-04-21 17:16 | 27.14035 | 76.81089 | 34799 ft | 470 kts | 180° |
| 2026-04-21 17:16 | 27.07516 | 76.81403 | 34821 ft | 466 kts | 180° |
| 2026-04-21 17:17 | 27.01034 | 76.81700 | 34818 ft | 465 kts | 180° |
| 2026-04-21 17:17 | 26.94568 | 76.81988 | 34816 ft | 464 kts | 180° |
| 2026-04-21 17:18 | 26.88077 | 76.82276 | 34814 ft | 464 kts | 180° |
| 2026-04-21 17:18 | 26.81642 | 76.82558 | 34813 ft | 464 kts | 180° |
| 2026-04-21 17:19 | 26.75188 | 76.82845 | 34815 ft | 463 kts | 180° |
| 2026-04-21 17:19 | 26.68719 | 76.83130 | 34815 ft | 463 kts | 180° |
| 2026-04-21 17:20 | 26.62282 | 76.83415 | 34812 ft | 464 kts | 180° |
| 2026-04-21 17:20 | 26.55850 | 76.83697 | 34814 ft | 462 kts | 180° |
| 2026-04-21 17:21 | 26.49418 | 76.83981 | 34814 ft | 461 kts | 180° |
| 2026-04-21 17:21 | 26.43010 | 76.84264 | 34820 ft | 462 kts | 180° |
| 2026-04-21 17:22 | 26.36574 | 76.84546 | 34819 ft | 462 kts | 180° |
| 2026-04-21 17:22 | 26.30153 | 76.84829 | 34817 ft | 460 kts | 180° |
| 2026-04-21 17:23 | 26.23742 | 76.85111 | 34820 ft | 461 kts | 180° |
| 2026-04-21 17:23 | 26.17333 | 76.85392 | 34818 ft | 459 kts | 180° |
| 2026-04-21 17:24 | 26.10980 | 76.85670 | 34824 ft | 460 kts | 180° |
| 2026-04-21 17:24 | 26.04563 | 76.85949 | 34828 ft | 459 kts | 180° |
| 2026-04-21 17:25 | 25.98168 | 76.86229 | 34829 ft | 460 kts | 180° |
| 2026-04-21 17:25 | 25.91770 | 76.86507 | 34833 ft | 459 kts | 180° |
| 2026-04-21 17:26 | 25.85402 | 76.86785 | 34837 ft | 457 kts | 180° |
| 2026-04-21 17:26 | 25.79067 | 76.87060 | 34843 ft | 458 kts | 180° |
| 2026-04-21 17:27 | 25.72674 | 76.87338 | 34842 ft | 456 kts | 180° |
| 2026-04-21 17:27 | 25.66316 | 76.87614 | 34841 ft | 457 kts | 180° |
| 2026-04-21 17:28 | 25.59989 | 76.87889 | 34853 ft | 455 kts | 180° |
| 2026-04-21 17:28 | 25.53635 | 76.88165 | 34853 ft | 456 kts | 180° |
| 2026-04-21 17:29 | 25.47340 | 76.88438 | 34865 ft | 453 kts | 180° |
| 2026-04-21 17:29 | 25.41014 | 76.88711 | 34858 ft | 454 kts | 180° |
| 2026-04-21 17:30 | 25.34690 | 76.88984 | 34867 ft | 455 kts | 180° |
| 2026-04-21 17:30 | 25.28345 | 76.89259 | 34865 ft | 455 kts | 180° |
| 2026-04-21 17:31 | 25.22056 | 76.89530 | 34872 ft | 454 kts | 180° |
| 2026-04-21 17:31 | 25.15722 | 76.89802 | 34868 ft | 453 kts | 180° |
| 2026-04-21 17:32 | 25.09447 | 76.90073 | 34867 ft | 452 kts | 180° |
| 2026-04-21 17:32 | 25.03142 | 76.90344 | 34862 ft | 453 kts | 180° |
| 2026-04-21 17:33 | 24.96855 | 76.90614 | 34863 ft | 451 kts | 180° |
| 2026-04-21 17:33 | 24.90632 | 76.90889 | 34565 ft | 441 kts | 179° |
| 2026-04-21 17:34 | 24.87543 | 76.91027 | 34161 ft | 435 kts | 179° |
| 2026-04-21 17:34 | 24.84553 | 76.91160 | 33676 ft | 433 kts | 179° |
| 2026-04-21 17:34 | 24.81524 | 76.91293 | 33158 ft | 432 kts | 179° |
| 2026-04-21 17:34 | 24.78530 | 76.91423 | 32644 ft | 436 kts | 179° |
| 2026-04-21 17:35 | 24.75499 | 76.91555 | 32111 ft | 437 kts | 179° |
| 2026-04-21 17:35 | 24.72456 | 76.91688 | 31577 ft | 435 kts | 179° |
| 2026-04-21 17:35 | 24.69453 | 76.91820 | 31056 ft | 432 kts | 179° |
| 2026-04-21 17:35 | 24.66441 | 76.91952 | 30525 ft | 430 kts | 179° |
| 2026-04-21 17:36 | 24.63453 | 76.92082 | 30000 ft | 428 kts | 179° |
| 2026-04-21 17:36 | 24.60514 | 76.92212 | 29482 ft | 426 kts | 179° |
| 2026-04-21 17:36 | 24.57546 | 76.92342 | 28956 ft | 424 kts | 179° |
| 2026-04-21 17:36 | 24.54588 | 76.92472 | 28433 ft | 422 kts | 179° |
| 2026-04-21 17:37 | 24.51648 | 76.92601 | 27911 ft | 420 kts | 178° |
| 2026-04-21 17:37 | 24.48749 | 76.92728 | 27391 ft | 418 kts | 178° |
| 2026-04-21 17:37 | 24.45871 | 76.92854 | 26873 ft | 416 kts | 178° |
| 2026-04-21 17:37 | 24.42991 | 76.93059 | 26350 ft | 414 kts | 174° |
| 2026-04-21 17:38 | 24.40123 | 76.93533 | 25826 ft | 412 kts | 168° |
| 2026-04-21 17:38 | 24.37374 | 76.94301 | 25304 ft | 410 kts | 163° |
| 2026-04-21 17:38 | 24.34649 | 76.95239 | 24788 ft | 407 kts | 161° |
| 2026-04-21 17:38 | 24.31975 | 76.96234 | 24278 ft | 405 kts | 160° |
| 2026-04-21 17:39 | 24.29315 | 76.97244 | 23763 ft | 403 kts | 160° |
| 2026-04-21 17:39 | 24.26698 | 76.98234 | 23259 ft | 400 kts | 160° |
| 2026-04-21 17:39 | 24.24071 | 76.99216 | 22765 ft | 397 kts | 160° |
| 2026-04-21 17:39 | 24.21454 | 77.00185 | 22278 ft | 394 kts | 161° |
| 2026-04-21 17:40 | 24.18865 | 77.01135 | 21793 ft | 392 kts | 161° |
| 2026-04-21 17:40 | 24.16268 | 77.02083 | 21293 ft | 390 kts | 161° |
| 2026-04-21 17:40 | 24.13712 | 77.03011 | 20807 ft | 388 kts | 161° |
| 2026-04-21 17:40 | 24.11132 | 77.03946 | 20314 ft | 386 kts | 161° |
| 2026-04-21 17:41 | 24.08585 | 77.04868 | 19826 ft | 384 kts | 162° |
| 2026-04-21 17:41 | 24.06087 | 77.05769 | 19342 ft | 382 kts | 162° |
| 2026-04-21 17:41 | 24.03568 | 77.06678 | 18856 ft | 380 kts | 162° |
| 2026-04-21 17:41 | 24.01067 | 77.07581 | 18393 ft | 377 kts | 162° |
| 2026-04-21 17:42 | 23.98564 | 77.08485 | 17919 ft | 375 kts | 162° |
| 2026-04-21 17:42 | 23.96101 | 77.09373 | 17446 ft | 373 kts | 162° |
| 2026-04-21 17:42 | 23.93656 | 77.10254 | 16981 ft | 371 kts | 162° |
| 2026-04-21 17:42 | 23.91191 | 77.11142 | 16510 ft | 368 kts | 162° |
| 2026-04-21 17:43 | 23.88766 | 77.12015 | 16040 ft | 366 kts | 163° |
| 2026-04-21 17:43 | 23.86359 | 77.12882 | 15571 ft | 364 kts | 163° |
| 2026-04-21 17:43 | 23.83939 | 77.13751 | 15101 ft | 362 kts | 163° |
| 2026-04-21 17:43 | 23.81568 | 77.14603 | 14643 ft | 359 kts | 163° |
| 2026-04-21 17:44 | 23.79199 | 77.15455 | 14186 ft | 357 kts | 163° |
| 2026-04-21 17:44 | 23.76841 | 77.16302 | 13730 ft | 354 kts | 164° |
| 2026-04-21 17:44 | 23.74503 | 77.17142 | 13280 ft | 352 kts | 164° |
| 2026-04-21 17:44 | 23.72184 | 77.17975 | 12824 ft | 349 kts | 164° |
| 2026-04-21 17:45 | 23.69898 | 77.18795 | 12379 ft | 346 kts | 164° |
| 2026-04-21 17:45 | 23.67599 | 77.19619 | 11935 ft | 344 kts | 164° |
| 2026-04-21 17:45 | 23.65358 | 77.20422 | 11502 ft | 341 kts | 164° |
| 2026-04-21 17:45 | 23.63096 | 77.21233 | 11065 ft | 339 kts | 164° |
| 2026-04-21 17:46 | 23.60876 | 77.22030 | 10631 ft | 337 kts | 165° |
| 2026-04-21 17:46 | 23.58642 | 77.22830 | 10195 ft | 335 kts | 164° |
| 2026-04-21 17:46 | 23.56431 | 77.23622 | 9874 ft | 329 kts | 164° |
| 2026-04-21 17:46 | 23.54287 | 77.24391 | 9604 ft | 323 kts | 164° |
| 2026-04-21 17:47 | 23.52186 | 77.25249 | 9133 ft | 325 kts | 153° |
| 2026-04-21 17:47 | 23.50467 | 77.26856 | 8739 ft | 326 kts | 129° |
| 2026-04-21 17:47 | 23.49220 | 77.28889 | 8426 ft | 322 kts | 122° |
| 2026-04-21 17:47 | 23.48104 | 77.30965 | 8130 ft | 318 kts | 120° |
| 2026-04-21 17:48 | 23.47370 | 77.32359 | 8002 ft | 311 kts | 120° |
| 2026-04-21 17:48 | 23.45968 | 77.35023 | 7900 ft | 295 kts | 120° |
| 2026-04-21 17:48 | 23.44961 | 77.36932 | 7571 ft | 294 kts | 120° |
| 2026-04-21 17:48 | 23.43941 | 77.38852 | 7237 ft | 294 kts | 120° |
| 2026-04-21 17:49 | 23.42903 | 77.40795 | 6904 ft | 293 kts | 120° |
| 2026-04-21 17:49 | 23.41889 | 77.42684 | 6588 ft | 292 kts | 120° |
| 2026-04-21 17:49 | 23.40863 | 77.44586 | 6149 ft | 291 kts | 120° |
| 2026-04-21 17:49 | 23.39832 | 77.46493 | 5723 ft | 290 kts | 120° |
| 2026-04-21 17:50 | 23.38815 | 77.48361 | 5287 ft | 289 kts | 120° |
| 2026-04-21 17:50 | 23.37781 | 77.50231 | 4910 ft | 285 kts | 120° |
| 2026-04-21 17:50 | 23.36761 | 77.52045 | 4646 ft | 276 kts | 120° |
| 2026-04-21 17:50 | 23.35773 | 77.53780 | 4369 ft | 270 kts | 121° |
| 2026-04-21 17:51 | 23.35409 | 77.54356 | 4277 ft | 270 kts | 127° |
| 2026-04-21 17:51 | 23.31092 | 77.55894 | 4037 ft | 236 kts | 181° |
| 2026-04-21 17:51 | 23.29500 | 77.55944 | 4015 ft | 217 kts | 184° |
| 2026-04-21 17:52 | 23.28122 | 77.55594 | 4013 ft | 197 kts | 209° |
| 2026-04-21 17:52 | 23.26897 | 77.54926 | 4021 ft | 196 kts | 211° |
| 2026-04-21 17:52 | 23.25667 | 77.54274 | 4019 ft | 195 kts | 210° |
| 2026-04-21 17:52 | 23.24439 | 77.53638 | 4022 ft | 195 kts | 210° |
| 2026-04-21 17:53 | 23.23217 | 77.53013 | 4024 ft | 194 kts | 212° |
| 2026-04-21 17:53 | 23.22292 | 77.52078 | 4015 ft | 167 kts | 253° |
| 2026-04-21 17:53 | 23.22126 | 77.50949 | 4042 ft | 148 kts | 272° |
| 2026-04-21 17:53 | 23.22043 | 77.49822 | 4021 ft | 149 kts | 270° |
| 2026-04-21 17:54 | 23.21943 | 77.48701 | 4017 ft | 147 kts | 272° |
| 2026-04-21 17:54 | 23.22132 | 77.47633 | 4019 ft | 143 kts | 295° |
| 2026-04-21 17:54 | 23.22498 | 77.46622 | 4018 ft | 145 kts | 294° |
| 2026-04-21 17:54 | 23.22888 | 77.45604 | 3897 ft | 146 kts | 297° |
| 2026-04-21 17:55 | 23.23321 | 77.44609 | 3701 ft | 143 kts | 299° |
| 2026-04-21 17:55 | 23.23760 | 77.43641 | 3524 ft | 144 kts | 300° |
| 2026-04-21 17:55 | 23.24218 | 77.42645 | 3248 ft | 149 kts | 299° |
| 2026-04-21 17:55 | 23.24686 | 77.41633 | 3035 ft | 148 kts | 301° |
| 2026-04-21 17:56 | 23.25156 | 77.40674 | 2858 ft | 143 kts | 301° |
| 2026-04-21 17:56 | 23.25621 | 77.39713 | 2705 ft | 144 kts | 300° |
| 2026-04-21 17:56 | 23.26088 | 77.38752 | 2545 ft | 144 kts | 300° |
| 2026-04-21 17:56 | 23.26553 | 77.37794 | 2379 ft | 143 kts | 300° |
| 2026-04-21 17:57 | 23.27022 | 77.36826 | 2219 ft | 145 kts | 300° |
| 2026-04-21 17:57 | 23.27494 | 77.35858 | 2038 ft | 144 kts | 300° |
| 2026-04-21 17:57 | 23.27967 | 77.34888 | 1863 ft | 147 kts | 300° |
| 2026-04-21 17:57 | 23.28450 | 77.33900 | 1715 ft | 138 kts | 298° |
| 2026-04-21 17:58 | 23.28765 | 77.33237 | 1711 ft | 61 kts | 303° |
| 2026-04-21 17:58 | 23.28864 | 77.33055 | 1711 ft | 4 kts | 50° |
| 2026-04-21 17:58 | 23.28842 | 77.33106 | 1711 ft | 7 kts | 120° |
| 2026-04-21 17:58 | 23.28836 | 77.33175 | 1710 ft | 14 kts | 45° |
| 2026-04-21 17:59 | 23.28954 | 77.33243 | 1707 ft | 24 kts | 20° |
| 2026-04-21 17:59 | 23.29025 | 77.33367 | 1705 ft | 22 kts | 126° |
| 2026-04-21 17:59 | 23.28989 | 77.33502 | 1704 ft | 16 kts | 30° |
| 2026-04-21 17:59 | 23.29007 | 77.33513 | 1703 ft | 0 kts | 30° |